sensor_id;sensor_type;location;lat;lon;timestamp;temperature;humidity
4725;DHT22;2376;53.544;10.226;2023-02-08T00:02:02;1.50;99.90
4725;DHT22;2376;53.544;10.226;2023-02-08T00:04:29;1.40;99.90
4725;DHT22;2376;53.544;10.226;2023-02-08T00:06:55;1.50;99.90
4725;DHT22;2376;53.544;10.226;2023-02-08T00:09:22;1.50;99.90
4725;DHT22;2376;53.544;10.226;2023-02-08T00:11:49;1.50;99.90
4725;DHT22;2376;53.544;10.226;2023-02-08T00:14:16;1.40;99.90
4725;DHT22;2376;53.544;10.226;2023-02-08T00:16:42;1.50;99.90
4725;DHT22;2376;53.544;10.226;2023-02-08T00:19:10;1.50;99.90
4725;DHT22;2376;53.544;10.226;2023-02-08T00:21:37;1.50;99.90
4725;DHT22;2376;53.544;10.226;2023-02-08T00:24:05;1.50;99.90
4725;DHT22;2376;53.544;10.226;2023-02-08T00:26:32;1.50;99.90
4725;DHT22;2376;53.544;10.226;2023-02-08T00:28:59;1.50;99.90
4725;DHT22;2376;53.544;10.226;2023-02-08T00:31:26;1.40;99.90
4725;DHT22;2376;53.544;10.226;2023-02-08T00:33:52;1.40;99.90
4725;DHT22;2376;53.544;10.226;2023-02-08T00:36:20;1.40;99.90
4725;DHT22;2376;53.544;10.226;2023-02-08T00:38:47;1.30;99.90
4725;DHT22;2376;53.544;10.226;2023-02-08T00:41:14;1.20;99.90
4725;DHT22;2376;53.544;10.226;2023-02-08T00:43:40;1.30;99.90
4725;DHT22;2376;53.544;10.226;2023-02-08T00:46:07;1.20;99.90
4725;DHT22;2376;53.544;10.226;2023-02-08T00:48:34;1.20;99.90
4725;DHT22;2376;53.544;10.226;2023-02-08T00:51:03;1.20;99.90
4725;DHT22;2376;53.544;10.226;2023-02-08T00:53:34;1.20;99.90
4725;DHT22;2376;53.544;10.226;2023-02-08T00:56:01;1.20;99.90
4725;DHT22;2376;53.544;10.226;2023-02-08T00:58:27;1.10;99.90
4725;DHT22;2376;53.544;10.226;2023-02-08T01:00:54;1.10;99.90
4725;DHT22;2376;53.544;10.226;2023-02-08T01:03:22;1.10;99.90
4725;DHT22;2376;53.544;10.226;2023-02-08T01:05:49;1.10;99.90
4725;DHT22;2376;53.544;10.226;2023-02-08T01:08:15;1.00;99.90
4725;DHT22;2376;53.544;10.226;2023-02-08T01:10:45;1.10;99.90
4725;DHT22;2376;53.544;10.226;2023-02-08T01:13:12;1.00;99.90
4725;DHT22;2376;53.544;10.226;2023-02-08T01:15:39;1.00;99.90
4725;DHT22;2376;53.544;10.226;2023-02-08T01:18:06;1.10;99.90
4725;DHT22;2376;53.544;10.226;2023-02-08T01:20:34;1.00;99.90
4725;DHT22;2376;53.544;10.226;2023-02-08T01:23:01;1.00;99.90
4725;DHT22;2376;53.544;10.226;2023-02-08T01:25:28;1.00;99.90
4725;DHT22;2376;53.544;10.226;2023-02-08T01:27:56;1.00;99.90
4725;DHT22;2376;53.544;10.226;2023-02-08T01:30:23;1.00;99.90
4725;DHT22;2376;53.544;10.226;2023-02-08T01:32:50;1.00;99.90
4725;DHT22;2376;53.544;10.226;2023-02-08T01:35:17;0.90;99.90
4725;DHT22;2376;53.544;10.226;2023-02-08T01:37:43;0.90;99.90
4725;DHT22;2376;53.544;10.226;2023-02-08T01:40:11;0.80;99.90
4725;DHT22;2376;53.544;10.226;2023-02-08T01:42:38;0.80;99.90
4725;DHT22;2376;53.544;10.226;2023-02-08T01:45:27;0.70;99.90
4725;DHT22;2376;53.544;10.226;2023-02-08T01:48:02;0.70;99.90
4725;DHT22;2376;53.544;10.226;2023-02-08T01:50:35;0.70;99.90
4725;DHT22;2376;53.544;10.226;2023-02-08T01:53:03;0.70;99.90
4725;DHT22;2376;53.544;10.226;2023-02-08T01:55:32;0.70;99.90
4725;DHT22;2376;53.544;10.226;2023-02-08T01:58:02;0.70;99.90
4725;DHT22;2376;53.544;10.226;2023-02-08T02:00:30;0.60;99.90
4725;DHT22;2376;53.544;10.226;2023-02-08T02:02:59;0.60;99.90
4725;DHT22;2376;53.544;10.226;2023-02-08T02:05:30;0.70;99.90
4725;DHT22;2376;53.544;10.226;2023-02-08T02:07:57;0.60;99.90
4725;DHT22;2376;53.544;10.226;2023-02-08T02:10:26;0.60;99.90
4725;DHT22;2376;53.544;10.226;2023-02-08T02:12:56;0.60;99.90
4725;DHT22;2376;53.544;10.226;2023-02-08T02:15:23;0.60;99.90
4725;DHT22;2376;53.544;10.226;2023-02-08T02:17:51;0.60;99.90
4725;DHT22;2376;53.544;10.226;2023-02-08T02:20:25;0.50;99.90
4725;DHT22;2376;53.544;10.226;2023-02-08T02:23:15;0.50;99.90
4725;DHT22;2376;53.544;10.226;2023-02-08T02:32:17;0.40;99.90
4725;DHT22;2376;53.544;10.226;2023-02-08T02:34:51;0.40;99.90
4725;DHT22;2376;53.544;10.226;2023-02-08T02:37:29;0.50;99.90
4725;DHT22;2376;53.544;10.226;2023-02-08T02:40:03;0.40;99.90
4725;DHT22;2376;53.544;10.226;2023-02-08T02:42:38;0.40;99.90
4725;DHT22;2376;53.544;10.226;2023-02-08T02:45:31;0.40;99.90
4725;DHT22;2376;53.544;10.226;2023-02-08T02:48:04;0.30;99.90
4725;DHT22;2376;53.544;10.226;2023-02-08T02:50:34;0.30;99.90
4725;DHT22;2376;53.544;10.226;2023-02-08T02:53:09;0.30;99.90
4725;DHT22;2376;53.544;10.226;2023-02-08T02:55:41;0.30;99.90
4725;DHT22;2376;53.544;10.226;2023-02-08T02:58:10;0.30;99.90
4725;DHT22;2376;53.544;10.226;2023-02-08T03:00:37;0.30;99.90
4725;DHT22;2376;53.544;10.226;2023-02-08T03:03:05;0.30;99.90
4725;DHT22;2376;53.544;10.226;2023-02-08T03:05:32;0.30;99.90
4725;DHT22;2376;53.544;10.226;2023-02-08T03:08:11;0.30;99.90
4725;DHT22;2376;53.544;10.226;2023-02-08T03:10:49;0.30;99.90
4725;DHT22;2376;53.544;10.226;2023-02-08T03:13:25;0.30;99.90
4725;DHT22;2376;53.544;10.226;2023-02-08T03:16:01;0.30;99.90
4725;DHT22;2376;53.544;10.226;2023-02-08T03:18:38;0.30;99.90
4725;DHT22;2376;53.544;10.226;2023-02-08T03:21:13;0.30;99.90
4725;DHT22;2376;53.544;10.226;2023-02-08T03:23:49;0.30;99.90
4725;DHT22;2376;53.544;10.226;2023-02-08T03:26:21;0.30;99.90
4725;DHT22;2376;53.544;10.226;2023-02-08T03:28:55;0.30;99.90
4725;DHT22;2376;53.544;10.226;2023-02-08T03:31:25;0.20;99.90
4725;DHT22;2376;53.544;10.226;2023-02-08T03:33:59;0.20;99.90
4725;DHT22;2376;53.544;10.226;2023-02-08T03:36:31;0.10;99.90
4725;DHT22;2376;53.544;10.226;2023-02-08T03:39:03;0.10;99.90
4725;DHT22;2376;53.544;10.226;2023-02-08T03:41:34;0.10;99.90
4725;DHT22;2376;53.544;10.226;2023-02-08T03:44:08;0.10;99.90
4725;DHT22;2376;53.544;10.226;2023-02-08T03:46:38;0.00;99.90
4725;DHT22;2376;53.544;10.226;2023-02-08T03:49:12;0.00;99.90
4725;DHT22;2376;53.544;10.226;2023-02-08T03:51:40;0.10;99.90
4725;DHT22;2376;53.544;10.226;2023-02-08T03:54:11;0.00;99.90
4725;DHT22;2376;53.544;10.226;2023-02-08T03:56:45;0.00;99.90
4725;DHT22;2376;53.544;10.226;2023-02-08T03:59:17;-0.10;99.90
4725;DHT22;2376;53.544;10.226;2023-02-08T04:01:49;-0.10;99.90
4725;DHT22;2376;53.544;10.226;2023-02-08T04:04:19;-0.10;99.90
4725;DHT22;2376;53.544;10.226;2023-02-08T04:06:46;0.00;99.90
4725;DHT22;2376;53.544;10.226;2023-02-08T04:09:13;-0.10;99.90
4725;DHT22;2376;53.544;10.226;2023-02-08T04:11:40;-0.10;99.90
4725;DHT22;2376;53.544;10.226;2023-02-08T04:14:07;-0.10;99.90
4725;DHT22;2376;53.544;10.226;2023-02-08T04:16:33;-0.10;99.90
4725;DHT22;2376;53.544;10.226;2023-02-08T04:19:00;-0.10;99.90
4725;DHT22;2376;53.544;10.226;2023-02-08T04:21:28;-0.20;99.90
4725;DHT22;2376;53.544;10.226;2023-02-08T04:23:55;-0.20;99.90
4725;DHT22;2376;53.544;10.226;2023-02-08T04:26:21;-0.20;99.90
4725;DHT22;2376;53.544;10.226;2023-02-08T04:28:48;-0.10;99.90
4725;DHT22;2376;53.544;10.226;2023-02-08T04:31:15;-0.20;99.90
4725;DHT22;2376;53.544;10.226;2023-02-08T04:33:42;-0.20;99.90
4725;DHT22;2376;53.544;10.226;2023-02-08T04:36:09;-0.10;99.90
4725;DHT22;2376;53.544;10.226;2023-02-08T04:38:37;-0.20;99.90
4725;DHT22;2376;53.544;10.226;2023-02-08T04:41:04;-0.30;99.90
4725;DHT22;2376;53.544;10.226;2023-02-08T04:43:31;-0.20;99.90
4725;DHT22;2376;53.544;10.226;2023-02-08T04:45:57;-0.20;99.90
4725;DHT22;2376;53.544;10.226;2023-02-08T04:48:24;-0.20;99.90
4725;DHT22;2376;53.544;10.226;2023-02-08T04:50:54;-0.10;99.90
4725;DHT22;2376;53.544;10.226;2023-02-08T04:53:21;-0.20;99.90
4725;DHT22;2376;53.544;10.226;2023-02-08T04:55:50;-0.10;99.90
4725;DHT22;2376;53.544;10.226;2023-02-08T04:58:17;-0.10;99.90
4725;DHT22;2376;53.544;10.226;2023-02-08T05:00:44;-0.10;99.90
4725;DHT22;2376;53.544;10.226;2023-02-08T05:03:12;-0.10;99.90
4725;DHT22;2376;53.544;10.226;2023-02-08T05:05:39;-0.10;99.90
4725;DHT22;2376;53.544;10.226;2023-02-08T05:08:06;-0.20;99.90
4725;DHT22;2376;53.544;10.226;2023-02-08T05:10:33;-0.10;99.90
4725;DHT22;2376;53.544;10.226;2023-02-08T05:13:01;-0.20;99.90
4725;DHT22;2376;53.544;10.226;2023-02-08T05:15:28;-0.20;99.90
4725;DHT22;2376;53.544;10.226;2023-02-08T05:17:55;-0.20;99.90
4725;DHT22;2376;53.544;10.226;2023-02-08T05:20:21;-0.20;99.90
4725;DHT22;2376;53.544;10.226;2023-02-08T05:22:48;-0.20;99.90
4725;DHT22;2376;53.544;10.226;2023-02-08T05:25:14;-0.20;99.90
4725;DHT22;2376;53.544;10.226;2023-02-08T05:27:42;-0.20;99.90
4725;DHT22;2376;53.544;10.226;2023-02-08T05:30:11;-0.20;99.90
4725;DHT22;2376;53.544;10.226;2023-02-08T05:32:38;-0.20;99.90
4725;DHT22;2376;53.544;10.226;2023-02-08T05:35:05;-0.20;99.90
4725;DHT22;2376;53.544;10.226;2023-02-08T05:37:32;-0.20;99.90
4725;DHT22;2376;53.544;10.226;2023-02-08T05:39:58;-0.30;99.90
4725;DHT22;2376;53.544;10.226;2023-02-08T05:42:25;-0.20;99.90
4725;DHT22;2376;53.544;10.226;2023-02-08T05:44:52;-0.30;99.90
4725;DHT22;2376;53.544;10.226;2023-02-08T05:47:20;-0.30;99.90
4725;DHT22;2376;53.544;10.226;2023-02-08T05:49:47;-0.30;99.90
4725;DHT22;2376;53.544;10.226;2023-02-08T05:52:13;-0.30;99.90
4725;DHT22;2376;53.544;10.226;2023-02-08T05:54:40;-0.30;99.90
4725;DHT22;2376;53.544;10.226;2023-02-08T05:57:07;-0.30;99.90
4725;DHT22;2376;53.544;10.226;2023-02-08T05:59:34;-0.30;99.90
4725;DHT22;2376;53.544;10.226;2023-02-08T06:02:00;-0.30;99.90
4725;DHT22;2376;53.544;10.226;2023-02-08T06:04:28;-0.30;99.90
4725;DHT22;2376;53.544;10.226;2023-02-08T06:06:55;-0.30;99.90
4725;DHT22;2376;53.544;10.226;2023-02-08T06:09:22;-0.30;99.90
4725;DHT22;2376;53.544;10.226;2023-02-08T06:11:49;-0.30;99.90
4725;DHT22;2376;53.544;10.226;2023-02-08T06:14:15;-0.30;99.90
4725;DHT22;2376;53.544;10.226;2023-02-08T06:16:42;-0.20;99.90
4725;DHT22;2376;53.544;10.226;2023-02-08T06:19:09;-0.20;99.90
4725;DHT22;2376;53.544;10.226;2023-02-08T06:21:37;-0.30;99.90
4725;DHT22;2376;53.544;10.226;2023-02-08T06:24:04;-0.30;99.90
4725;DHT22;2376;53.544;10.226;2023-02-08T06:26:32;-0.30;99.90
4725;DHT22;2376;53.544;10.226;2023-02-08T06:28:59;-0.30;99.90
4725;DHT22;2376;53.544;10.226;2023-02-08T06:31:26;-0.30;99.90
4725;DHT22;2376;53.544;10.226;2023-02-08T06:33:52;-0.30;99.90
4725;DHT22;2376;53.544;10.226;2023-02-08T06:36:19;-0.30;99.90
4725;DHT22;2376;53.544;10.226;2023-02-08T06:38:47;-0.30;99.90
4725;DHT22;2376;53.544;10.226;2023-02-08T06:41:14;-0.30;99.90
4725;DHT22;2376;53.544;10.226;2023-02-08T06:43:41;-0.30;99.90
4725;DHT22;2376;53.544;10.226;2023-02-08T06:46:08;-0.30;99.90
4725;DHT22;2376;53.544;10.226;2023-02-08T06:48:36;-0.30;99.90
4725;DHT22;2376;53.544;10.226;2023-02-08T06:51:03;-0.30;99.90
4725;DHT22;2376;53.544;10.226;2023-02-08T06:53:30;-0.30;99.90
4725;DHT22;2376;53.544;10.226;2023-02-08T06:55:58;-0.30;99.90
4725;DHT22;2376;53.544;10.226;2023-02-08T06:58:25;-0.30;99.90
4725;DHT22;2376;53.544;10.226;2023-02-08T07:00:52;-0.40;99.90
4725;DHT22;2376;53.544;10.226;2023-02-08T07:03:19;-0.30;99.90
4725;DHT22;2376;53.544;10.226;2023-02-08T07:05:46;-0.40;99.90
4725;DHT22;2376;53.544;10.226;2023-02-08T07:08:13;-0.40;99.90
4725;DHT22;2376;53.544;10.226;2023-02-08T07:10:40;-0.40;99.90
4725;DHT22;2376;53.544;10.226;2023-02-08T07:13:08;-0.50;99.90
4725;DHT22;2376;53.544;10.226;2023-02-08T07:15:35;-0.50;99.90
4725;DHT22;2376;53.544;10.226;2023-02-08T07:18:02;-0.40;99.90
4725;DHT22;2376;53.544;10.226;2023-02-08T07:20:28;-0.40;99.90
4725;DHT22;2376;53.544;10.226;2023-02-08T07:22:55;-0.40;99.90
4725;DHT22;2376;53.544;10.226;2023-02-08T07:25:22;-0.40;99.90
4725;DHT22;2376;53.544;10.226;2023-02-08T07:27:49;-0.30;99.90
4725;DHT22;2376;53.544;10.226;2023-02-08T07:30:18;-0.30;99.90
4725;DHT22;2376;53.544;10.226;2023-02-08T07:32:45;-0.30;99.90
4725;DHT22;2376;53.544;10.226;2023-02-08T07:35:12;-0.30;99.90
4725;DHT22;2376;53.544;10.226;2023-02-08T07:37:46;-0.30;99.90
4725;DHT22;2376;53.544;10.226;2023-02-08T07:40:13;-0.20;99.90
4725;DHT22;2376;53.544;10.226;2023-02-08T07:42:41;-0.20;99.90
4725;DHT22;2376;53.544;10.226;2023-02-08T07:45:08;-0.10;99.90
4725;DHT22;2376;53.544;10.226;2023-02-08T07:47:36;-0.10;99.90
4725;DHT22;2376;53.544;10.226;2023-02-08T07:50:03;-0.10;99.90
4725;DHT22;2376;53.544;10.226;2023-02-08T07:52:29;0.00;99.90
4725;DHT22;2376;53.544;10.226;2023-02-08T07:54:56;0.00;99.90
4725;DHT22;2376;53.544;10.226;2023-02-08T07:57:23;0.00;99.90
4725;DHT22;2376;53.544;10.226;2023-02-08T07:59:49;0.00;99.90
4725;DHT22;2376;53.544;10.226;2023-02-08T08:02:16;0.00;99.90
4725;DHT22;2376;53.544;10.226;2023-02-08T08:04:45;0.10;99.90
4725;DHT22;2376;53.544;10.226;2023-02-08T08:07:15;0.20;99.90
4725;DHT22;2376;53.544;10.226;2023-02-08T08:09:41;0.20;99.90
4725;DHT22;2376;53.544;10.226;2023-02-08T08:12:08;0.20;99.90
4725;DHT22;2376;53.544;10.226;2023-02-08T08:14:35;0.10;99.90
4725;DHT22;2376;53.544;10.226;2023-02-08T08:17:02;-0.30;99.90
4725;DHT22;2376;53.544;10.226;2023-02-08T08:19:28;-0.20;99.90
4725;DHT22;2376;53.544;10.226;2023-02-08T08:21:56;-0.10;99.90
4725;DHT22;2376;53.544;10.226;2023-02-08T08:24:23;0.00;99.90
4725;DHT22;2376;53.544;10.226;2023-02-08T08:26:50;0.10;99.90
4725;DHT22;2376;53.544;10.226;2023-02-08T08:29:17;0.20;99.90
4725;DHT22;2376;53.544;10.226;2023-02-08T08:31:43;0.30;99.90
4725;DHT22;2376;53.544;10.226;2023-02-08T08:34:10;0.30;99.90
4725;DHT22;2376;53.544;10.226;2023-02-08T08:36:37;0.30;99.90
4725;DHT22;2376;53.544;10.226;2023-02-08T08:39:05;0.20;99.90
4725;DHT22;2376;53.544;10.226;2023-02-08T08:41:32;0.40;99.90
4725;DHT22;2376;53.544;10.226;2023-02-08T08:44:00;0.40;99.90
4725;DHT22;2376;53.544;10.226;2023-02-08T08:46:27;0.50;99.90
4725;DHT22;2376;53.544;10.226;2023-02-08T08:48:53;0.60;99.90
4725;DHT22;2376;53.544;10.226;2023-02-08T08:51:20;0.70;99.90
4725;DHT22;2376;53.544;10.226;2023-02-08T08:53:47;0.80;99.90
4725;DHT22;2376;53.544;10.226;2023-02-08T08:56:15;0.90;99.90
4725;DHT22;2376;53.544;10.226;2023-02-08T08:58:41;1.00;99.90
4725;DHT22;2376;53.544;10.226;2023-02-08T09:01:08;1.00;99.90
4725;DHT22;2376;53.544;10.226;2023-02-08T09:03:35;1.10;99.90
4725;DHT22;2376;53.544;10.226;2023-02-08T09:06:02;1.20;99.90
4725;DHT22;2376;53.544;10.226;2023-02-08T09:08:29;1.20;99.90
4725;DHT22;2376;53.544;10.226;2023-02-08T09:10:55;1.30;99.90
4725;DHT22;2376;53.544;10.226;2023-02-08T09:13:23;1.30;99.90
4725;DHT22;2376;53.544;10.226;2023-02-08T09:15:50;1.30;99.90
4725;DHT22;2376;53.544;10.226;2023-02-08T09:18:17;1.40;99.90
4725;DHT22;2376;53.544;10.226;2023-02-08T09:20:43;1.50;99.90
4725;DHT22;2376;53.544;10.226;2023-02-08T09:23:10;1.60;99.90
4725;DHT22;2376;53.544;10.226;2023-02-08T09:25:38;1.70;99.90
4725;DHT22;2376;53.544;10.226;2023-02-08T09:28:06;1.80;99.90
4725;DHT22;2376;53.544;10.226;2023-02-08T09:30:34;1.80;99.90
4725;DHT22;2376;53.544;10.226;2023-02-08T09:33:01;1.80;99.90
4725;DHT22;2376;53.544;10.226;2023-02-08T09:35:28;1.90;99.90
4725;DHT22;2376;53.544;10.226;2023-02-08T09:37:55;1.90;99.90
4725;DHT22;2376;53.544;10.226;2023-02-08T09:40:30;2.00;99.90
4725;DHT22;2376;53.544;10.226;2023-02-08T09:43:05;2.00;99.90
4725;DHT22;2376;53.544;10.226;2023-02-08T09:45:46;1.90;99.90
4725;DHT22;2376;53.544;10.226;2023-02-08T09:48:20;2.10;99.90
4725;DHT22;2376;53.544;10.226;2023-02-08T09:50:52;2.30;99.90
4725;DHT22;2376;53.544;10.226;2023-02-08T09:53:23;2.20;99.90
4725;DHT22;2376;53.544;10.226;2023-02-08T09:55:56;2.30;99.90
4725;DHT22;2376;53.544;10.226;2023-02-08T09:58:28;2.30;99.90
4725;DHT22;2376;53.544;10.226;2023-02-08T10:00:57;2.40;99.90
4725;DHT22;2376;53.544;10.226;2023-02-08T10:03:33;2.50;99.90
4725;DHT22;2376;53.544;10.226;2023-02-08T10:06:01;2.50;99.90
4725;DHT22;2376;53.544;10.226;2023-02-08T10:08:28;2.60;99.90
4725;DHT22;2376;53.544;10.226;2023-02-08T10:11:01;2.60;99.90
4725;DHT22;2376;53.544;10.226;2023-02-08T10:13:51;2.60;99.90
4725;DHT22;2376;53.544;10.226;2023-02-08T10:16:39;2.70;99.90
4725;DHT22;2376;53.544;10.226;2023-02-08T10:19:18;2.60;99.90
4725;DHT22;2376;53.544;10.226;2023-02-08T10:21:59;2.70;99.90
4725;DHT22;2376;53.544;10.226;2023-02-08T10:24:48;2.80;99.90
4725;DHT22;2376;53.544;10.226;2023-02-08T10:27:23;2.80;99.90
4725;DHT22;2376;53.544;10.226;2023-02-08T10:30:03;2.80;99.90
4725;DHT22;2376;53.544;10.226;2023-02-08T10:32:49;2.90;99.90
4725;DHT22;2376;53.544;10.226;2023-02-08T10:35:24;2.90;99.90
4725;DHT22;2376;53.544;10.226;2023-02-08T10:37:53;3.00;99.90
4725;DHT22;2376;53.544;10.226;2023-02-08T10:40:29;3.10;99.90
4725;DHT22;2376;53.544;10.226;2023-02-08T10:43:05;3.20;99.90
4725;DHT22;2376;53.544;10.226;2023-02-08T10:45:39;3.30;99.90
4725;DHT22;2376;53.544;10.226;2023-02-08T10:48:13;3.40;99.90
4725;DHT22;2376;53.544;10.226;2023-02-08T10:50:42;3.40;99.90
4725;DHT22;2376;53.544;10.226;2023-02-08T10:53:13;3.50;99.70
4725;DHT22;2376;53.544;10.226;2023-02-08T10:55:42;3.60;98.60
4725;DHT22;2376;53.544;10.226;2023-02-08T10:58:13;3.60;97.60
4725;DHT22;2376;53.544;10.226;2023-02-08T11:00:42;3.70;97.70
4725;DHT22;2376;53.544;10.226;2023-02-08T11:03:16;3.70;97.30
4725;DHT22;2376;53.544;10.226;2023-02-08T11:05:44;3.80;96.80
4725;DHT22;2376;53.544;10.226;2023-02-08T11:08:13;3.90;95.50
4725;DHT22;2376;53.544;10.226;2023-02-08T11:10:44;3.90;95.60
4725;DHT22;2376;53.544;10.226;2023-02-08T11:13:17;4.00;95.30
4725;DHT22;2376;53.544;10.226;2023-02-08T11:15:47;4.10;94.60
4725;DHT22;2376;53.544;10.226;2023-02-08T11:18:21;4.10;94.10
4725;DHT22;2376;53.544;10.226;2023-02-08T11:20:50;4.20;93.10
4725;DHT22;2376;53.544;10.226;2023-02-08T11:23:23;4.20;91.80
4725;DHT22;2376;53.544;10.226;2023-02-08T11:25:52;4.20;90.70
4725;DHT22;2376;53.544;10.226;2023-02-08T11:28:26;4.20;89.40
4725;DHT22;2376;53.544;10.226;2023-02-08T11:30:55;4.30;90.00
4725;DHT22;2376;53.544;10.226;2023-02-08T11:33:23;4.40;89.90
4725;DHT22;2376;53.544;10.226;2023-02-08T11:35:54;4.50;91.00
4725;DHT22;2376;53.544;10.226;2023-02-08T11:38:21;4.60;91.30
4725;DHT22;2376;53.544;10.226;2023-02-08T11:40:53;4.70;89.70
4725;DHT22;2376;53.544;10.226;2023-02-08T11:43:22;4.60;87.30
4725;DHT22;2376;53.544;10.226;2023-02-08T11:45:50;4.50;84.00
4725;DHT22;2376;53.544;10.226;2023-02-08T11:48:23;4.60;83.70
4725;DHT22;2376;53.544;10.226;2023-02-08T11:50:56;4.70;84.10
4725;DHT22;2376;53.544;10.226;2023-02-08T11:53:27;4.70;82.50
4725;DHT22;2376;53.544;10.226;2023-02-08T11:56:17;4.90;82.70
4725;DHT22;2376;53.544;10.226;2023-02-08T11:59:02;5.00;83.90
4725;DHT22;2376;53.544;10.226;2023-02-08T12:01:31;5.20;84.20
4725;DHT22;2376;53.544;10.226;2023-02-08T12:04:02;5.20;81.20
4725;DHT22;2376;53.544;10.226;2023-02-08T12:12:34;5.40;83.50
4725;DHT22;2376;53.544;10.226;2023-02-08T12:15:09;5.40;79.90
4725;DHT22;2376;53.544;10.226;2023-02-08T12:17:58;5.50;78.80
4725;DHT22;2376;53.544;10.226;2023-02-08T12:20:36;5.60;80.20
4725;DHT22;2376;53.544;10.226;2023-02-08T12:23:23;5.80;78.60
4725;DHT22;2376;53.544;10.226;2023-02-08T12:25:59;5.80;78.90
4725;DHT22;2376;53.544;10.226;2023-02-08T12:28:38;5.80;76.60
4725;DHT22;2376;53.544;10.226;2023-02-08T12:31:13;5.80;76.20
4725;DHT22;2376;53.544;10.226;2023-02-08T12:33:49;5.90;74.30
4725;DHT22;2376;53.544;10.226;2023-02-08T12:36:34;5.90;70.50
4725;DHT22;2376;53.544;10.226;2023-02-08T12:39:09;6.10;70.70
4725;DHT22;2376;53.544;10.226;2023-02-08T12:42:12;6.20;70.90
4725;DHT22;2376;53.544;10.226;2023-02-08T12:44:52;6.30;71.70
4725;DHT22;2376;53.544;10.226;2023-02-08T12:47:33;6.40;72.00
4725;DHT22;2376;53.544;10.226;2023-02-08T12:50:12;6.50;69.90
4725;DHT22;2376;53.544;10.226;2023-02-08T12:52:47;6.60;71.30
4725;DHT22;2376;53.544;10.226;2023-02-08T12:55:20;6.60;69.80
4725;DHT22;2376;53.544;10.226;2023-02-08T12:57:51;6.60;68.50
4725;DHT22;2376;53.544;10.226;2023-02-08T13:00:22;6.50;66.30
4725;DHT22;2376;53.544;10.226;2023-02-08T13:02:57;6.70;64.60
4725;DHT22;2376;53.544;10.226;2023-02-08T13:05:28;6.80;63.80
4725;DHT22;2376;53.544;10.226;2023-02-08T13:08:02;6.90;65.00
4725;DHT22;2376;53.544;10.226;2023-02-08T13:10:34;6.90;63.40
4725;DHT22;2376;53.544;10.226;2023-02-08T13:13:07;6.90;63.10
4725;DHT22;2376;53.544;10.226;2023-02-08T13:15:40;7.00;64.00
4725;DHT22;2376;53.544;10.226;2023-02-08T13:18:13;6.90;62.90
4725;DHT22;2376;53.544;10.226;2023-02-08T13:20:44;7.00;63.70
4725;DHT22;2376;53.544;10.226;2023-02-08T13:23:18;7.10;65.30
4725;DHT22;2376;53.544;10.226;2023-02-08T13:25:47;7.10;63.10
4725;DHT22;2376;53.544;10.226;2023-02-08T13:28:18;7.10;62.80
4725;DHT22;2376;53.544;10.226;2023-02-08T13:30:51;7.10;61.70
4725;DHT22;2376;53.544;10.226;2023-02-08T13:33:23;7.00;61.60
4725;DHT22;2376;53.544;10.226;2023-02-08T13:35:52;7.00;60.20
4725;DHT22;2376;53.544;10.226;2023-02-08T13:38:25;7.10;61.60
4725;DHT22;2376;53.544;10.226;2023-02-08T13:41:05;7.20;61.60
4725;DHT22;2376;53.544;10.226;2023-02-08T13:43:36;7.30;61.80
4725;DHT22;2376;53.544;10.226;2023-02-08T13:46:05;7.30;61.90
4725;DHT22;2376;53.544;10.226;2023-02-08T13:48:44;7.40;63.20
4725;DHT22;2376;53.544;10.226;2023-02-08T13:54:29;7.30;59.60
4725;DHT22;2376;53.544;10.226;2023-02-08T13:56:56;7.40;61.00
4725;DHT22;2376;53.544;10.226;2023-02-08T13:59:37;7.50;60.70
4725;DHT22;2376;53.544;10.226;2023-02-08T14:02:26;7.50;61.30
4725;DHT22;2376;53.544;10.226;2023-02-08T14:07:47;7.60;61.00
4725;DHT22;2376;53.544;10.226;2023-02-08T14:10:32;7.70;62.40
4725;DHT22;2376;53.544;10.226;2023-02-08T14:13:04;7.70;61.80
4725;DHT22;2376;53.544;10.226;2023-02-08T14:15:36;7.70;61.00
4725;DHT22;2376;53.544;10.226;2023-02-08T14:18:04;7.70;60.90
4725;DHT22;2376;53.544;10.226;2023-02-08T14:21:03;7.70;61.40
4725;DHT22;2376;53.544;10.226;2023-02-08T14:23:32;7.70;60.90
4725;DHT22;2376;53.544;10.226;2023-02-08T14:26:06;7.80;61.00
4725;DHT22;2376;53.544;10.226;2023-02-08T14:28:35;7.80;61.30
4725;DHT22;2376;53.544;10.226;2023-02-08T14:31:07;7.80;61.50
4725;DHT22;2376;53.544;10.226;2023-02-08T14:33:37;7.80;61.50
4725;DHT22;2376;53.544;10.226;2023-02-08T14:36:15;7.70;61.20
4725;DHT22;2376;53.544;10.226;2023-02-08T14:41:47;7.50;62.70
4725;DHT22;2376;53.544;10.226;2023-02-08T14:50:30;7.30;65.60
4725;DHT22;2376;53.544;10.226;2023-02-08T14:53:02;7.40;66.50
4725;DHT22;2376;53.544;10.226;2023-02-08T14:55:31;7.40;66.60
4725;DHT22;2376;53.544;10.226;2023-02-08T14:58:05;7.30;66.20
4725;DHT22;2376;53.544;10.226;2023-02-08T15:00:35;7.20;66.90
4725;DHT22;2376;53.544;10.226;2023-02-08T15:03:03;7.20;67.50
4725;DHT22;2376;53.544;10.226;2023-02-08T15:05:35;7.10;67.50
4725;DHT22;2376;53.544;10.226;2023-02-08T15:08:04;7.10;67.80
4725;DHT22;2376;53.544;10.226;2023-02-08T15:10:32;7.00;67.70
4725;DHT22;2376;53.544;10.226;2023-02-08T15:13:15;6.90;68.00
4725;DHT22;2376;53.544;10.226;2023-02-08T15:15:44;6.90;68.60
4725;DHT22;2376;53.544;10.226;2023-02-08T15:18:17;6.90;68.90
4725;DHT22;2376;53.544;10.226;2023-02-08T15:20:52;6.80;68.60
4725;DHT22;2376;53.544;10.226;2023-02-08T15:23:23;6.80;68.70
4725;DHT22;2376;53.544;10.226;2023-02-08T15:25:54;6.70;68.80
4725;DHT22;2376;53.544;10.226;2023-02-08T15:28:24;6.70;68.90
4725;DHT22;2376;53.544;10.226;2023-02-08T15:30:53;6.60;68.80
4725;DHT22;2376;53.544;10.226;2023-02-08T15:33:20;6.60;68.90
4725;DHT22;2376;53.544;10.226;2023-02-08T15:35:55;6.50;69.70
4725;DHT22;2376;53.544;10.226;2023-02-08T15:38:22;6.60;70.50
4725;DHT22;2376;53.544;10.226;2023-02-08T15:41:00;6.60;70.60
4725;DHT22;2376;53.544;10.226;2023-02-08T15:43:28;6.60;70.80
4725;DHT22;2376;53.544;10.226;2023-02-08T15:45:56;6.60;71.30
4725;DHT22;2376;53.544;10.226;2023-02-08T15:48:24;6.50;71.30
4725;DHT22;2376;53.544;10.226;2023-02-08T15:50:51;6.50;72.20
4725;DHT22;2376;53.544;10.226;2023-02-08T15:53:18;6.40;72.50
4725;DHT22;2376;53.544;10.226;2023-02-08T15:55:47;6.40;73.80
4725;DHT22;2376;53.544;10.226;2023-02-08T15:58:18;6.40;73.50
4725;DHT22;2376;53.544;10.226;2023-02-08T16:00:53;6.40;74.20
4725;DHT22;2376;53.544;10.226;2023-02-08T16:03:22;6.30;74.20
4725;DHT22;2376;53.544;10.226;2023-02-08T16:05:51;6.30;74.50
4725;DHT22;2376;53.544;10.226;2023-02-08T16:08:21;6.30;74.80
4725;DHT22;2376;53.544;10.226;2023-02-08T16:10:51;6.30;75.20
4725;DHT22;2376;53.544;10.226;2023-02-08T16:13:21;6.30;75.50
4725;DHT22;2376;53.544;10.226;2023-02-08T16:15:50;6.20;76.00
4725;DHT22;2376;53.544;10.226;2023-02-08T16:18:39;6.10;76.80
4725;DHT22;2376;53.544;10.226;2023-02-08T16:21:18;6.10;77.30
4725;DHT22;2376;53.544;10.226;2023-02-08T16:23:48;6.10;78.40
4725;DHT22;2376;53.544;10.226;2023-02-08T16:26:21;5.90;78.60
4725;DHT22;2376;53.544;10.226;2023-02-08T16:28:54;5.90;79.40
4725;DHT22;2376;53.544;10.226;2023-02-08T16:31:22;5.90;79.80
4725;DHT22;2376;53.544;10.226;2023-02-08T16:34:02;5.80;80.10
4725;DHT22;2376;53.544;10.226;2023-02-08T16:36:32;5.80;80.90
4725;DHT22;2376;53.544;10.226;2023-02-08T16:42:35;5.70;83.10
4725;DHT22;2376;53.544;10.226;2023-02-08T16:45:20;5.60;83.70
4725;DHT22;2376;53.544;10.226;2023-02-08T16:47:50;5.60;84.20
4725;DHT22;2376;53.544;10.226;2023-02-08T16:50:20;5.50;84.80